Time;durP1;ratioP1;P1;durP2;ratioP2;P2;SDS_P1;SDS_P2;PMS_P1;PMS_P2;Temp;Humidity;BMP_temperature;BMP_pressure;BME280_temperature;BME280_humidity;BME280_pressure;Samples;Min_cycle;Max_cycle;Signal;HPM_P1;HPM_P2
2021/11/29 00:01:41;;;;;;;101.43;69.78;;;2.80;99.90;;;;;;5163932;27;20157;-85
2021/11/29 00:04:08;;;;;;;108.25;86.45;;;2.90;99.90;;;;;;5164186;27;20153;-84
2021/11/29 00:06:33;;;;;;;102.68;68.97;;;2.90;99.90;;;;;;5164048;27;20215;-85
2021/11/29 00:09:03;;;;;;;108.73;78.70;;;2.90;33.60;;;;;;5163577;27;20189;-85
2021/11/29 00:11:29;;;;;;;103.82;78.13;;;2.90;1.00;;;;;;5163378;27;20466;-85
2021/11/29 00:13:55;;;;;;;98.63;64.37;;;2.80;1.00;;;;;;5145023;27;20219;-84
2021/11/29 00:16:20;;;;;;;104.23;80.87;;;2.70;93.30;;;;;;5164306;27;20161;-85
2021/11/29 00:18:46;;;;;;;98.77;65.43;;;2.70;99.90;;;;;;5144664;27;20172;-85
2021/11/29 00:21:13;;;;;;;95.63;59.10;;;2.70;99.90;;;;;;5145063;27;20166;-85
2021/11/29 00:23:40;;;;;;;94.95;50.28;;;2.70;99.90;;;;;;5163237;27;20153;-85
2021/11/29 00:26:06;;;;;;;101.88;67.05;;;2.80;99.90;;;;;;5163530;27;20161;-85
2021/11/29 00:28:32;;;;;;;99.00;63.87;;;2.80;1.00;;;;;;5145346;27;20212;-85
2021/11/29 00:30:58;;;;;;;107.18;76.53;;;2.70;1.00;;;;;;5144872;27;20427;-85
2021/11/29 00:33:24;;;;;;;114.03;96.80;;;2.70;1.00;;;;;;5163134;27;20165;-85
2021/11/29 00:35:50;;;;;;;98.33;65.27;;;2.80;1.00;;;;;;5163141;27;20193;-85
2021/11/29 00:38:16;;;;;;;109.63;89.15;;;2.80;1.00;;;;;;5163031;27;20409;-85
2021/11/29 00:40:42;;;;;;;105.67;82.57;;;2.80;1.00;;;;;;5144152;27;20180;-84
2021/11/29 00:43:08;;;;;;;109.38;82.40;;;2.80;1.00;;;;;;5144412;27;20410;-84
2021/11/29 00:45:34;;;;;;;104.03;92.43;;;2.80;1.00;;;;;;5144106;27;20188;-84
2021/11/29 00:48:00;;;;;;;101.10;79.88;;;2.70;1.00;;;;;;5144446;27;20450;-85
2021/11/29 00:50:27;;;;;;;104.87;79.90;;;2.70;1.00;;;;;;5162993;27;20540;-84
2021/11/29 00:52:53;;;;;;;102.95;82.15;;;2.70;1.00;;;;;;5144718;27;20493;-85
2021/11/29 00:55:19;;;;;;;103.50;80.32;;;2.80;1.00;;;;;;5144129;27;20173;-85
2021/11/29 00:57:45;;;;;;;99.37;74.53;;;2.70;1.00;;;;;;5144701;27;20168;-85
2021/11/29 01:00:14;;;;;;;105.97;73.07;;;2.70;1.00;;;;;;5163098;27;20413;-84
2021/11/29 01:02:40;;;;;;;97.78;72.00;;;2.70;1.00;;;;;;5143603;27;20157;-84
2021/11/29 01:05:08;;;;;;;94.10;62.13;;;2.60;1.00;;;;;;5143563;27;20331;-84
2021/11/29 01:07:34;;;;;;;111.32;93.28;;;2.70;1.00;;;;;;5143763;27;20402;-85
2021/11/29 01:10:00;;;;;;;96.47;67.67;;;2.60;1.00;;;;;;5162207;27;20184;-85
2021/11/29 01:12:26;;;;;;;99.10;69.53;;;2.60;1.00;;;;;;5162078;27;20479;-85
2021/11/29 01:14:52;;;;;;;104.68;85.32;;;2.60;1.00;;;;;;5143027;27;20157;-84
2021/11/29 01:17:18;;;;;;;97.38;70.90;;;2.60;1.00;;;;;;5161986;27;20640;-85
2021/11/29 01:19:44;;;;;;;107.80;90.77;;;2.60;1.00;;;;;;5161151;27;20193;-85
2021/11/29 01:22:10;;;;;;;102.57;71.77;;;2.60;1.00;;;;;;5162010;27;20405;-85
2021/11/29 01:24:35;;;;;;;97.67;73.63;;;2.60;1.00;;;;;;5162138;27;20406;-85
2021/11/29 01:27:02;;;;;;;97.87;74.53;;;2.60;1.00;;;;;;5161622;27;20169;-85
2021/11/29 01:29:28;;;;;;;97.47;63.40;;;2.60;99.90;;;;;;5142970;27;20201;-84
2021/11/29 01:31:53;;;;;;;105.78;73.53;;;2.50;99.90;;;;;;5162766;27;20160;-84
2021/11/29 01:34:19;;;;;;;97.30;69.03;;;2.60;99.90;;;;;;5161959;27;20636;-84
2021/11/29 01:36:45;;;;;;;102.47;75.67;;;2.50;99.90;;;;;;5162533;27;20161;-85
2021/11/29 01:39:11;;;;;;;102.03;81.17;;;2.50;99.90;;;;;;5161866;27;20521;-84
2021/11/29 01:41:40;;;;;;;103.03;84.72;;;2.50;99.90;;;;;;5143184;27;20161;-85
2021/11/29 01:44:06;;;;;;;102.20;90.47;;;2.50;99.90;;;;;;5143791;27;20162;-84
2021/11/29 01:46:32;;;;;;;102.37;77.67;;;2.50;1.00;;;;;;5162222;27;20169;-84
2021/11/29 01:48:58;;;;;;;97.78;74.53;;;2.50;1.00;;;;;;5161615;27;20264;-85
2021/11/29 01:51:24;;;;;;;103.50;77.97;;;2.50;1.00;;;;;;5162468;27;20561;-84
2021/11/29 01:53:56;;;;;;;95.20;68.23;;;2.40;99.90;;;;;;5210496;22;20476;-84
2021/11/29 01:56:22;;;;;;;100.15;73.95;;;2.40;1.00;;;;;;5101138;28;20477;-84
2021/11/29 01:58:48;;;;;;;95.70;73.47;;;2.50;1.00;;;;;;5119292;28;20162;-84
2021/11/29 02:01:19;;;;;;;90.97;59.83;;;2.60;1.00;;;;;;5102921;28;20171;-84
2021/11/29 02:03:48;;;;;;;106.22;88.45;;;2.50;99.90;;;;;;5101508;28;20193;-84
2021/11/29 02:06:14;;;;;;;101.25;67.30;;;2.60;99.90;;;;;;5119607;28;20560;-84
2021/11/29 02:08:40;;;;;;;93.50;65.15;;;2.60;99.90;;;;;;5119175;28;20187;-84
2021/11/29 02:11:06;;;;;;;93.90;68.93;;;2.60;99.90;;;;;;5118896;28;20279;-84
2021/11/29 02:13:32;;;;;;;96.63;51.55;;;2.60;99.90;;;;;;5119268;28;20159;-84
2021/11/29 02:15:58;;;;;;;95.57;39.27;;;2.60;99.90;;;;;;5118989;28;20512;-84
2021/11/29 02:18:32;;;;;;;85.38;42.17;;;2.70;99.90;;;;;;5119310;28;20393;-84
2021/11/29 02:21:12;;;;;;;88.80;39.83;;;2.70;92.10;;;;;;5100652;28;20158;-84
2021/11/29 02:23:50;;;;;;;88.60;51.72;;;2.60;54.60;;;;;;5101194;28;20174;-84
2021/11/29 02:26:19;;;;;;;87.95;46.03;;;2.50;53.10;;;;;;5119226;28;20182;-84
2021/11/29 02:28:47;;;;;;;87.22;42.42;;;2.60;99.90;;;;;;5100358;28;20281;-84
2021/11/29 02:31:19;;;;;;;95.18;53.92;;;2.60;94.00;;;;;;5118725;28;20194;-84
2021/11/29 02:33:45;;;;;;;86.53;42.15;;;2.60;34.90;;;;;;5101107;28;20622;-84
2021/11/29 02:36:13;;;;;;;83.40;41.60;;;2.50;20.30;;;;;;5118784;28;20170;-84
2021/11/29 02:38:39;;;;;;;87.75;44.72;;;2.50;1.00;;;;;;5118752;28;20411;-83
2021/11/29 02:41:06;;;;;;;90.53;49.28;;;2.50;24.40;;;;;;5100396;28;20174;-84
2021/11/29 02:43:32;;;;;;;87.20;46.10;;;2.40;10.30;;;;;;5118953;28;20197;-84
2021/11/29 02:45:58;;;;;;;89.63;51.60;;;2.40;94.90;;;;;;5118377;28;20163;-84
2021/11/29 02:48:49;;;;;;;88.97;45.60;;;2.40;80.30;;;;;;5118752;28;20209;-84
2021/11/29 02:51:31;;;;;;;99.57;69.55;;;2.40;53.70;;;;;;5118806;28;20642;-84
2021/11/29 02:54:05;;;;;;;84.32;43.17;;;2.30;47.90;;;;;;5118632;28;20545;-83
2021/11/29 02:56:32;;;;;;;84.50;38.20;;;2.40;90.00;;;;;;5100194;28;20154;-83
2021/11/29 02:58:58;;;;;;;82.22;29.80;;;2.40;35.90;;;;;;5100364;28;20587;-84
2021/11/29 03:01:24;;;;;;;80.88;32.03;;;2.30;30.60;;;;;;5100218;28;20166;-84
2021/11/29 03:03:52;;;;;;;79.17;28.07;;;2.40;31.20;;;;;;5099915;28;20177;-84
2021/11/29 03:06:18;;;;;;;84.65;26.80;;;2.40;1.00;;;;;;5099995;28;20166;-84
2021/11/29 03:08:45;;;;;;;81.65;26.33;;;2.40;1.00;;;;;;5118147;28;20217;-84
2021/11/29 03:11:12;;;;;;;78.65;26.42;;;2.30;1.00;;;;;;5118229;28;20163;-84
2021/11/29 03:13:38;;;;;;;80.20;27.60;;;2.20;14.70;;;;;;5098718;28;20166;-83
2021/11/29 03:16:04;;;;;;;77.38;24.15;;;2.20;26.40;;;;;;5117965;28;20248;-84
2021/11/29 03:18:31;;;;;;;79.37;29.30;;;2.20;47.60;;;;;;5099416;28;20198;-84
2021/11/29 03:20:57;;;;;;;87.57;38.67;;;2.20;45.40;;;;;;5116880;28;20400;-83
2021/11/29 03:23:23;;;;;;;82.20;33.80;;;2.20;99.90;;;;;;5117223;28;20551;-83
2021/11/29 03:25:49;;;;;;;80.40;29.77;;;2.30;99.90;;;;;;5118220;28;20400;-84
2021/11/29 03:28:15;;;;;;;84.17;44.80;;;2.30;92.70;;;;;;5118533;28;20186;-84
2021/11/29 03:30:41;;;;;;;88.20;51.93;;;2.30;95.40;;;;;;5117098;28;20484;-83
2021/11/29 03:33:07;;;;;;;86.05;48.63;;;2.40;99.90;;;;;;5100669;28;20530;-84
2021/11/29 03:35:35;;;;;;;88.33;51.17;;;2.40;99.90;;;;;;5119284;28;20155;-84
2021/11/29 03:38:04;;;;;;;85.30;47.83;;;2.40;99.90;;;;;;5099890;28;20464;-84
2021/11/29 03:40:32;;;;;;;83.10;42.95;;;2.50;99.90;;;;;;5118044;28;20484;-84
2021/11/29 03:42:59;;;;;;;85.00;47.50;;;2.50;96.40;;;;;;5099699;28;20304;-84
2021/11/29 03:45:25;;;;;;;90.78;55.03;;;2.50;99.90;;;;;;5099562;28;20167;-84
2021/11/29 03:47:50;;;;;;;92.68;57.95;;;2.50;99.90;;;;;;5117228;28;20189;-83
2021/11/29 03:50:17;;;;;;;90.30;51.87;;;2.50;99.90;;;;;;5117630;28;20247;-84
2021/11/29 03:52:42;;;;;;;86.43;50.22;;;2.50;99.90;;;;;;5117587;28;20529;-84
2021/11/29 03:55:09;;;;;;;87.03;55.27;;;2.50;99.90;;;;;;5098689;28;20178;-84
2021/11/29 03:57:34;;;;;;;87.82;49.60;;;2.50;99.90;;;;;;5099213;28;20205;-84
2021/11/29 04:00:00;;;;;;;88.57;59.37;;;2.50;71.70;;;;;;5117612;28;20198;-84
2021/11/29 04:02:27;;;;;;;93.00;58.05;;;2.40;99.90;;;;;;5118154;28;20166;-84
2021/11/29 04:04:53;;;;;;;95.70;64.68;;;2.50;99.90;;;;;;5117007;28;20167;-84
2021/11/29 04:07:20;;;;;;;96.77;66.73;;;2.40;99.90;;;;;;5117338;28;20162;-84
2021/11/29 04:09:46;;;;;;;103.70;85.90;;;2.40;99.90;;;;;;5099088;28;20462;-84
2021/11/29 04:12:12;;;;;;;100.27;83.67;;;2.30;99.90;;;;;;5117225;28;20522;-84
2021/11/29 04:14:37;;;;;;;93.60;67.77;;;2.40;1.00;;;;;;5117565;28;20449;-84
2021/11/29 04:17:03;;;;;;;93.17;64.27;;;2.40;99.90;;;;;;5098641;28;20404;-84
2021/11/29 04:19:29;;;;;;;106.90;70.60;;;2.40;99.90;;;;;;5117468;28;20174;-84
2021/11/29 04:21:55;;;;;;;90.57;59.80;;;2.50;99.90;;;;;;5117411;28;20412;-84
2021/11/29 04:24:23;;;;;;;90.50;61.77;;;2.50;99.90;;;;;;5117408;28;20235;-84
2021/11/29 04:26:53;;;;;;;92.55;59.03;;;2.40;99.90;;;;;;5099269;28;20923;-84
2021/11/29 04:29:25;;;;;;;88.75;56.60;;;2.40;99.90;;;;;;5117489;28;20689;-84
2021/11/29 04:31:51;;;;;;;94.95;60.47;;;2.40;99.90;;;;;;5117080;28;20139;-84
2021/11/29 04:34:16;;;;;;;87.50;45.90;;;2.40;99.90;;;;;;5120250;28;20554;-83
2021/11/29 04:36:43;;;;;;;85.10;51.37;;;2.40;99.90;;;;;;5102834;28;20162;-84
2021/11/29 04:39:09;;;;;;;91.47;62.28;;;2.40;99.90;;;;;;5102468;28;20534;-84
2021/11/29 04:41:34;;;;;;;83.03;46.60;;;2.30;99.90;;;;;;5121235;28;20176;-84
2021/11/29 04:44:00;;;;;;;85.23;45.70;;;2.30;99.90;;;;;;5120968;28;20183;-83
2021/11/29 04:46:26;;;;;;;85.90;52.97;;;2.30;99.90;;;;;;5121425;28;20571;-83
2021/11/29 04:48:52;;;;;;;83.23;41.17;;;2.30;99.90;;;;;;5102563;28;20543;-84
2021/11/29 04:51:17;;;;;;;94.27;68.17;;;2.30;99.90;;;;;;5120500;28;20163;-84
2021/11/29 04:53:43;;;;;;;86.47;50.13;;;2.20;99.90;;;;;;5120440;28;20181;-84
2021/11/29 04:56:09;;;;;;;89.73;49.27;;;2.30;99.90;;;;;;5102046;28;20151;-84
2021/11/29 04:58:35;;;;;;;92.72;54.08;;;2.30;99.90;;;;;;5102970;28;20178;-83
2021/11/29 05:01:01;;;;;;;90.60;59.97;;;2.30;99.90;;;;;;5101722;28;20762;-83
2021/11/29 05:03:26;;;;;;;86.60;53.93;;;2.30;99.90;;;;;;5121024;28;20174;-83
2021/11/29 05:05:52;;;;;;;81.87;41.60;;;2.30;99.90;;;;;;5103347;28;20444;-84
2021/11/29 05:08:18;;;;;;;83.93;45.10;;;2.30;99.90;;;;;;5120505;28;20217;-84
2021/11/29 05:10:44;;;;;;;86.10;52.73;;;2.40;99.90;;;;;;5120180;28;20186;-84
2021/11/29 05:13:13;;;;;;;88.00;52.93;;;2.30;99.90;;;;;;5120108;28;20164;-83
2021/11/29 05:15:39;;;;;;;86.93;41.38;;;2.40;99.90;;;;;;5120106;28;20392;-83
2021/11/29 05:18:04;;;;;;;86.10;51.08;;;2.40;99.90;;;;;;5102177;28;20170;-84
2021/11/29 05:20:31;;;;;;;85.97;47.53;;;2.40;99.90;;;;;;5119797;28;20186;-84
2021/11/29 05:23:00;;;;;;;91.47;47.97;;;2.40;99.90;;;;;;5101919;28;20170;-84
2021/11/29 05:25:26;;;;;;;87.90;52.90;;;2.40;99.90;;;;;;5119996;28;20226;-84
2021/11/29 05:27:52;;;;;;;91.28;62.25;;;2.30;99.90;;;;;;5120357;28;20571;-84
2021/11/29 05:30:18;;;;;;;89.97;53.07;;;2.30;99.90;;;;;;5119659;28;20174;-84
2021/11/29 05:32:44;;;;;;;96.03;74.47;;;2.20;99.90;;;;;;5120254;28;20155;-84
2021/11/29 05:35:10;;;;;;;99.30;69.80;;;2.20;1.00;;;;;;5120274;28;20426;-84
2021/11/29 05:37:35;;;;;;;104.67;88.60;;;2.10;1.00;;;;;;5119884;28;20436;-84
2021/11/29 05:40:02;;;;;;;97.57;76.40;;;2.10;99.90;;;;;;5119611;28;20189;-84
2021/11/29 05:42:28;;;;;;;114.43;102.28;;;2.10;99.90;;;;;;5119973;28;20525;-84
2021/11/29 05:44:54;;;;;;;108.97;94.40;;;2.10;99.90;;;;;;5119188;28;20159;-84
2021/11/29 05:47:20;;;;;;;133.00;120.28;;;2.10;1.00;;;;;;5100887;28;20171;-84
2021/11/29 05:49:47;;;;;;;175.27;160.65;;;2.20;1.00;;;;;;5119865;28;20198;-84
2021/11/29 05:52:13;;;;;;;129.15;116.97;;;2.10;99.90;;;;;;5101108;28;20169;-84
2021/11/29 05:54:39;;;;;;;147.13;134.33;;;2.10;1.00;;;;;;5119891;28;20257;-84
2021/11/29 05:57:05;;;;;;;132.75;120.60;;;2.20;1.00;;;;;;5101558;28;20421;-84
2021/11/29 05:59:30;;;;;;;137.30;123.57;;;2.20;1.00;;;;;;5119342;28;20189;-84
2021/11/29 06:01:56;;;;;;;124.30;112.23;;;2.20;1.00;;;;;;5119317;28;20643;-84
2021/11/29 06:04:22;;;;;;;122.93;110.87;;;2.30;1.00;;;;;;5120670;28;20503;-84
2021/11/29 06:06:48;;;;;;;129.60;117.00;;;2.30;1.00;;;;;;5119290;28;20174;-84
2021/11/29 06:09:14;;;;;;;132.80;120.20;;;2.30;1.00;;;;;;5100980;28;20455;-84
2021/11/29 06:11:40;;;;;;;115.45;103.18;;;2.30;99.90;;;;;;5118923;28;20409;-84
2021/11/29 06:14:07;;;;;;;128.10;115.53;;;2.30;1.00;;;;;;5120166;28;20169;-84
2021/11/29 06:16:33;;;;;;;129.80;116.47;;;2.30;1.00;;;;;;5100976;28;20246;-84
2021/11/29 06:19:03;;;;;;;127.67;115.20;;;2.30;99.90;;;;;;5101273;28;20225;-84
2021/11/29 06:21:28;;;;;;;121.10;107.00;;;2.20;1.00;;;;;;5120426;28;20404;-84
2021/11/29 06:23:54;;;;;;;109.30;95.63;;;2.30;80.40;;;;;;5118848;28;20668;-84
2021/11/29 06:26:21;;;;;;;118.88;106.32;;;2.30;1.00;;;;;;5118908;28;20241;-84
2021/11/29 06:28:47;;;;;;;143.77;130.32;;;2.40;82.40;;;;;;5119149;28;20657;-84
2021/11/29 06:31:13;;;;;;;128.05;115.22;;;2.40;46.20;;;;;;5119013;28;20163;-83
2021/11/29 06:33:39;;;;;;;128.70;115.47;;;2.30;46.00;;;;;;5120290;28;20165;-84
2021/11/29 06:36:07;;;;;;;123.67;111.33;;;2.40;99.90;;;;;;5123600;28;20891;-84
2021/11/29 06:38:33;;;;;;;120.47;108.40;;;2.40;87.80;;;;;;5118934;28;20392;-84
2021/11/29 06:41:00;;;;;;;123.28;110.93;;;2.40;99.90;;;;;;5100251;28;20162;-84
2021/11/29 06:43:33;;;;;;;125.53;112.95;;;2.40;99.90;;;;;;5118920;28;20238;-84
2021/11/29 06:45:59;;;;;;;115.72;103.22;;;2.40;99.90;;;;;;5103049;28;20691;-83
2021/11/29 06:48:25;;;;;;;112.80;95.77;;;2.40;99.90;;;;;;5118321;28;20193;-84
2021/11/29 06:50:53;;;;;;;125.18;112.00;;;2.40;99.90;;;;;;5118387;28;20236;-83
2021/11/29 06:53:20;;;;;;;116.18;102.05;;;2.50;99.90;;;;;;5100200;28;20212;-84
2021/11/29 06:55:47;;;;;;;108.10;93.38;;;2.50;99.90;;;;;;5099410;28;20253;-83
2021/11/29 06:58:13;;;;;;;116.88;104.85;;;2.50;99.90;;;;;;5118763;28;20142;-84
2021/11/29 07:00:38;;;;;;;102.27;84.57;;;2.50;99.90;;;;;;5100653;28;20300;-83
2021/11/29 07:03:07;;;;;;;110.27;98.43;;;2.50;99.90;;;;;;5099745;28;20414;-83
2021/11/29 07:05:34;;;;;;;111.95;92.35;;;2.50;99.90;;;;;;5100438;28;20598;-83
2021/11/29 07:08:00;;;;;;;113.00;99.43;;;2.50;99.90;;;;;;5118452;28;20175;-83
2021/11/29 07:10:28;;;;;;;104.60;90.20;;;2.50;99.90;;;;;;5118286;28;20182;-83
2021/11/29 07:12:54;;;;;;;110.10;93.15;;;2.40;99.90;;;;;;5100612;28;20180;-83
2021/11/29 07:15:25;;;;;;;120.28;108.00;;;2.40;99.90;;;;;;5099766;28;20219;-84
2021/11/29 07:17:51;;;;;;;108.82;91.43;;;2.40;99.90;;;;;;5100141;28;20150;-84
2021/11/29 07:20:17;;;;;;;109.15;84.43;;;2.40;99.90;;;;;;5118861;28;20186;-84
2021/11/29 07:22:44;;;;;;;106.55;88.90;;;2.40;99.90;;;;;;5118609;28;20162;-84
2021/11/29 07:25:10;;;;;;;106.25;87.72;;;2.40;99.90;;;;;;5118642;28;20155;-84
2021/11/29 07:27:36;;;;;;;103.17;79.03;;;2.40;99.90;;;;;;5117623;28;20240;-83
2021/11/29 07:30:04;;;;;;;114.03;93.32;;;2.50;99.90;;;;;;5117976;28;20443;-84
2021/11/29 07:32:30;;;;;;;102.80;85.28;;;2.50;99.90;;;;;;5099717;28;20166;-82
2021/11/29 07:34:57;;;;;;;103.60;80.67;;;2.50;99.90;;;;;;5100047;28;20169;-83
2021/11/29 07:37:23;;;;;;;105.18;89.78;;;2.40;99.90;;;;;;5098869;28;20422;-83
2021/11/29 07:39:51;;;;;;;102.57;76.47;;;2.50;99.90;;;;;;5118862;28;20182;-83
2021/11/29 07:42:17;;;;;;;104.70;88.70;;;2.60;99.90;;;;;;5099603;28;20511;-83
2021/11/29 07:44:43;;;;;;;113.13;88.63;;;2.50;99.90;;;;;;5099996;28;20208;-83
2021/11/29 07:47:08;;;;;;;107.53;87.03;;;2.50;99.90;;;;;;5117653;28;20396;-82
2021/11/29 07:49:34;;;;;;;112.57;100.53;;;2.60;99.90;;;;;;5099490;28;20640;-83
2021/11/29 07:52:00;;;;;;;158.00;144.00;;;2.60;99.90;;;;;;5118075;28;20169;-83
2021/11/29 07:54:26;;;;;;;126.73;114.07;;;2.60;99.90;;;;;;5117486;28;20182;-83
2021/11/29 07:56:52;;;;;;;105.23;93.07;;;2.60;99.90;;;;;;5177646;22;20488;-85
2021/11/29 07:59:18;;;;;;;109.80;98.17;;;2.60;99.90;;;;;;5104650;28;20205;-84
2021/11/29 08:01:44;;;;;;;131.23;118.33;;;2.70;99.90;;;;;;5119089;28;20437;-84
2021/11/29 08:04:10;;;;;;;117.20;105.23;;;2.60;99.90;;;;;;5117888;28;20763;-84
2021/11/29 08:06:37;;;;;;;105.80;90.37;;;2.60;99.90;;;;;;5118858;28;20403;-84
2021/11/29 08:09:04;;;;;;;151.05;137.45;;;2.70;99.90;;;;;;5101876;28;20202;-85
2021/11/29 08:11:30;;;;;;;116.90;104.10;;;2.70;99.90;;;;;;5121402;28;20587;-84
2021/11/29 08:13:56;;;;;;;120.40;108.15;;;2.70;99.90;;;;;;5102896;28;20158;-84
2021/11/29 08:16:22;;;;;;;100.30;79.53;;;2.70;99.90;;;;;;5120800;28;20533;-84
2021/11/29 08:18:48;;;;;;;119.47;107.07;;;2.70;99.90;;;;;;5122316;28;20200;-84
2021/11/29 08:21:14;;;;;;;107.55;93.88;;;2.70;99.90;;;;;;5122601;28;20252;-84
2021/11/29 08:23:40;;;;;;;105.85;94.38;;;2.80;99.90;;;;;;5120659;28;20180;-84
2021/11/29 08:26:05;;;;;;;113.70;101.30;;;2.80;99.90;;;;;;5121423;28;20203;-84
2021/11/29 08:28:31;;;;;;;104.33;89.73;;;2.70;99.90;;;;;;5121503;28;20219;-85
2021/11/29 08:30:58;;;;;;;113.07;101.23;;;2.70;99.90;;;;;;5103029;28;20400;-84
2021/11/29 08:33:26;;;;;;;106.45;88.50;;;2.80;99.90;;;;;;5120609;28;20646;-84
2021/11/29 08:35:52;;;;;;;110.05;98.30;;;2.70;99.90;;;;;;5102473;28;20171;-84
2021/11/29 08:38:18;;;;;;;101.77;82.83;;;2.70;99.90;;;;;;5120611;28;20215;-84
2021/11/29 08:40:51;;;;;;;112.05;100.05;;;2.80;99.90;;;;;;5120213;28;20179;-85
2021/11/29 08:43:18;;;;;;;130.70;117.80;;;2.80;99.90;;;;;;5102862;28;20186;-84
2021/11/29 08:45:50;;;;;;;118.93;106.13;;;2.90;99.90;;;;;;5121495;28;20633;-84
2021/11/29 08:48:16;;;;;;;107.15;94.18;;;2.90;99.90;;;;;;5120439;28;20171;-84
2021/11/29 08:50:45;;;;;;;122.63;110.22;;;3.00;99.90;;;;;;5120597;28;20183;-84
2021/11/29 08:53:15;;;;;;;159.48;145.82;;;3.00;99.90;;;;;;5120511;28;20650;-84
2021/11/29 08:55:41;;;;;;;113.55;101.25;;;3.10;99.90;;;;;;5120480;28;20162;-83
2021/11/29 08:58:08;;;;;;;206.90;190.93;;;3.10;99.90;;;;;;5121102;28;20181;-83
2021/11/29 09:00:36;;;;;;;164.15;149.82;;;3.10;99.90;;;;;;5120338;28;20416;-84
2021/11/29 09:03:07;;;;;;;108.57;94.60;;;3.20;99.90;;;;;;5121578;28;20167;-83
2021/11/29 09:05:38;;;;;;;110.90;98.80;;;3.20;99.90;;;;;;5121469;28;20162;-83
2021/11/29 09:08:04;;;;;;;98.35;77.18;;;3.20;99.90;;;;;;5120251;28;20142;-84
2021/11/29 09:10:33;;;;;;;229.43;213.00;;;3.20;99.90;;;;;;5119991;28;20530;-84
2021/11/29 09:13:00;;;;;;;99.97;78.18;;;3.30;99.90;;;;;;5120710;28;20170;-84
2021/11/29 09:15:26;;;;;;;146.75;133.35;;;3.30;99.90;;;;;;5124680;28;20644;-84
2021/11/29 09:17:53;;;;;;;204.50;189.25;;;3.40;99.90;;;;;;5104260;28;20178;-84
2021/11/29 09:20:23;;;;;;;127.32;114.55;;;3.50;99.90;;;;;;5120798;28;20170;-84
2021/11/29 09:22:50;;;;;;;102.45;85.53;;;3.70;99.90;;;;;;5103541;28;20220;-84
2021/11/29 09:25:17;;;;;;;113.65;101.82;;;3.80;99.90;;;;;;5103138;28;20208;-84
2021/11/29 09:27:43;;;;;;;113.22;101.20;;;3.90;99.90;;;;;;5121160;28;20150;-84
2021/11/29 09:30:11;;;;;;;106.20;86.00;;;4.00;99.90;;;;;;5103820;28;20202;-85
2021/11/29 09:32:38;;;;;;;110.53;98.80;;;4.10;99.90;;;;;;5103931;28;20159;-84
2021/11/29 09:35:10;;;;;;;101.75;81.22;;;4.10;99.90;;;;;;5102954;28;20167;-84
2021/11/29 09:37:37;;;;;;;104.72;90.93;;;4.10;99.90;;;;;;5124115;28;20510;-84
2021/11/29 09:40:09;;;;;;;122.55;110.15;;;4.10;99.90;;;;;;5122963;28;20178;-84
2021/11/29 09:42:38;;;;;;;97.55;77.07;;;4.00;99.90;;;;;;5122965;28;20206;-84
2021/11/29 09:45:06;;;;;;;100.68;80.85;;;4.00;99.90;;;;;;5104412;28;20533;-84
2021/11/29 09:47:32;;;;;;;99.40;77.95;;;4.00;99.90;;;;;;5105736;28;20178;-84
2021/11/29 09:49:58;;;;;;;96.70;76.82;;;4.00;99.90;;;;;;5101692;28;20202;-84
2021/11/29 09:52:24;;;;;;;113.95;101.88;;;4.00;99.90;;;;;;5120154;28;20158;-85
2021/11/29 09:54:50;;;;;;;100.13;84.78;;;4.00;99.90;;;;;;5120764;28;20178;-84
2021/11/29 09:57:17;;;;;;;110.33;98.20;;;4.00;99.90;;;;;;5120378;28;20182;-84
2021/11/29 09:59:43;;;;;;;103.55;88.90;;;4.00;99.90;;;;;;5122187;28;20767;-85
2021/11/29 10:02:13;;;;;;;124.72;112.43;;;4.00;99.90;;;;;;5102534;28;20174;-84
2021/11/29 10:04:47;;;;;;;102.05;90.93;;;4.00;99.90;;;;;;5119368;28;20162;-84
2021/11/29 10:07:30;;;;;;;97.35;72.15;;;4.00;99.90;;;;;;5118878;28;20150;-84
2021/11/29 10:09:57;;;;;;;105.10;90.05;;;4.00;99.90;;;;;;5100464;28;20194;-84
2021/11/29 10:12:27;;;;;;;105.30;94.00;;;4.00;99.90;;;;;;5118734;28;20162;-84
2021/11/29 10:15:17;;;;;;;129.02;116.50;;;4.00;99.90;;;;;;5118552;28;20529;-84
2021/11/29 10:17:47;;;;;;;97.28;78.18;;;3.90;99.90;;;;;;5118357;28;20167;-84
2021/11/29 10:20:13;;;;;;;171.35;156.27;;;3.80;99.90;;;;;;5118681;28;20209;-84
2021/11/29 10:22:55;;;;;;;102.63;87.00;;;3.80;99.90;;;;;;5118453;28;20158;-84
2021/11/29 10:25:22;;;;;;;104.85;86.00;;;3.70;99.90;;;;;;5118485;28;20385;-84
2021/11/29 10:27:47;;;;;;;113.32;101.35;;;3.70;99.90;;;;;;5100167;28;20203;-84
2021/11/29 10:30:17;;;;;;;101.53;89.30;;;3.70;99.90;;;;;;5118089;28;20198;-84
2021/11/29 10:32:47;;;;;;;118.75;106.70;;;3.70;99.90;;;;;;5118294;28;20166;-84
2021/11/29 10:35:20;;;;;;;105.22;90.13;;;3.70;99.90;;;;;;5099885;28;20629;-84
2021/11/29 10:37:47;;;;;;;204.45;189.15;;;3.70;99.90;;;;;;5117819;28;20153;-84
2021/11/29 10:40:15;;;;;;;165.73;152.10;;;3.80;99.90;;;;;;5118137;28;20178;-84
2021/11/29 10:42:41;;;;;;;135.18;122.82;;;3.90;99.90;;;;;;5118742;28;20163;-84
2021/11/29 10:45:09;;;;;;;122.97;111.07;;;4.00;99.90;;;;;;5119662;28;20188;-84
2021/11/29 10:47:35;;;;;;;155.38;142.00;;;4.10;99.90;;;;;;5121400;28;20396;-84
2021/11/29 10:50:04;;;;;;;139.77;126.28;;;4.20;99.90;;;;;;5121526;28;20621;-84
2021/11/29 10:52:35;;;;;;;114.18;102.32;;;4.20;99.90;;;;;;5103607;28;20204;-85
2021/11/29 10:55:02;;;;;;;224.32;206.15;;;4.20;99.90;;;;;;5120863;28;20518;-84
2021/11/29 10:57:29;;;;;;;133.07;120.07;;;4.20;99.90;;;;;;5120059;28;20179;-84
2021/11/29 10:59:56;;;;;;;132.95;120.45;;;4.20;99.90;;;;;;5101145;28;20186;-84
2021/11/29 11:02:24;;;;;;;109.32;96.90;;;4.20;99.90;;;;;;5101081;28;20196;-84
2021/11/29 11:05:12;;;;;;;314.10;294.02;;;4.20;99.90;;;;;;5118208;28;20165;-84
2021/11/29 11:07:42;;;;;;;116.03;95.68;;;4.10;99.90;;;;;;5118346;28;20587;-84
2021/11/29 11:10:13;;;;;;;172.05;157.52;;;4.10;99.90;;;;;;5100178;28;20255;-85
2021/11/29 11:12:40;;;;;;;105.68;93.78;;;4.10;99.90;;;;;;5117873;28;20203;-84
2021/11/29 11:15:09;;;;;;;153.98;140.50;;;4.00;99.90;;;;;;5118716;28;20186;-84
2021/11/29 11:17:35;;;;;;;118.22;106.28;;;4.00;99.90;;;;;;5100084;28;20168;-84
2021/11/29 11:20:13;;;;;;;131.23;118.40;;;4.00;99.90;;;;;;5118238;28;20276;-84
2021/11/29 11:22:47;;;;;;;120.45;108.70;;;3.90;99.90;;;;;;5099846;28;20412;-84
2021/11/29 11:25:16;;;;;;;138.60;125.85;;;3.90;99.90;;;;;;5100289;28;20569;-85
2021/11/29 11:27:51;;;;;;;124.55;112.63;;;3.90;99.90;;;;;;5100986;28;20170;-84
2021/11/29 11:30:21;;;;;;;283.05;264.33;;;3.90;99.90;;;;;;5099809;28;20224;-84
2021/11/29 11:32:57;;;;;;;157.32;143.65;;;3.90;99.90;;;;;;5101222;28;20194;-84
2021/11/29 11:35:29;;;;;;;126.10;113.50;;;3.90;99.90;;;;;;5100604;28;20158;-85
2021/11/29 11:38:00;;;;;;;117.75;105.65;;;3.90;99.90;;;;;;5101828;28;20215;-84
2021/11/29 11:40:29;;;;;;;250.18;233.27;;;4.00;99.90;;;;;;5118752;28;20179;-85
2021/11/29 11:42:56;;;;;;;135.57;122.63;;;4.00;99.90;;;;;;5120326;28;20170;-85
2021/11/29 11:45:29;;;;;;;162.70;149.05;;;4.00;99.90;;;;;;5123231;28;20188;-85
2021/11/29 11:47:58;;;;;;;225.57;209.15;;;4.00;99.90;;;;;;5123184;28;20230;-85
2021/11/29 11:50:29;;;;;;;146.02;132.98;;;4.00;99.90;;;;;;5123356;28;20186;-84
2021/11/29 11:52:59;;;;;;;180.60;166.32;;;4.00;99.90;;;;;;5105918;28;20158;-84
2021/11/29 11:55:31;;;;;;;132.40;119.70;;;4.00;99.90;;;;;;5124184;28;20166;-85
2021/11/29 11:58:18;;;;;;;144.63;131.25;;;3.90;99.90;;;;;;5123994;28;20530;-84
2021/11/29 12:01:06;;;;;;;105.55;94.25;;;4.00;99.90;;;;;;5120989;28;20602;-85
2021/11/29 12:03:38;;;;;;;164.27;150.88;;;4.00;99.90;;;;;;5101059;28;20569;-85
2021/11/29 12:06:13;;;;;;;156.98;143.40;;;4.00;99.90;;;;;;5123480;28;20150;-84
2021/11/29 12:08:47;;;;;;;145.95;133.05;;;4.00;99.90;;;;;;5122975;28;20170;-85
2021/11/29 12:11:25;;;;;;;120.85;109.15;;;4.00;99.90;;;;;;5124009;28;20210;-85
2021/11/29 12:14:11;;;;;;;118.47;106.35;;;3.90;99.90;;;;;;5122757;28;20634;-85
2021/11/29 12:16:41;;;;;;;127.82;115.72;;;4.00;99.90;;;;;;5105473;28;20170;-85
2021/11/29 12:19:21;;;;;;;142.20;129.70;;;4.00;99.90;;;;;;5123360;28;20210;-85
2021/11/29 12:21:47;;;;;;;156.75;143.63;;;4.00;99.90;;;;;;5122481;28;20151;-85
2021/11/29 12:24:17;;;;;;;148.53;135.63;;;3.90;99.90;;;;;;5105592;28;20188;-85
2021/11/29 12:26:46;;;;;;;160.15;146.88;;;4.00;99.90;;;;;;5104777;28;20800;-85
2021/11/29 12:29:24;;;;;;;179.27;165.00;;;4.00;99.90;;;;;;5104487;28;20214;-85
2021/11/29 12:32:02;;;;;;;161.02;147.80;;;4.10;99.90;;;;;;5105025;28;20162;-85